Terminal Aerodrome Forecast
Issued by NWS Shreveport, LA

Home | Current Version | Previous Version | Text Only | Print | Product List | Glossary On
Versions: 1 2 3 4 5 6 7 8 9 10 11 12 13 14 15 16 17 18 19 20 21 22 23 24
756
FTUS44 KSHV 290520
TAFTYR
TAF
KTYR 290520Z 2906/3006 10008KT P6SM VCSH SCT050 OVC060
     FM290800 12008KT P6SM OVC020
     FM291200 14008KT P6SM VCTS OVC020CB
     FM291800 18015G25KT P6SM VCTS BKN040CB
     FM300000 16011KT 4SM -TSRA BR OVC020CB=

USA.gov is the U.S. government's official web portal to all federal, state and local government web resources and services.